Time;durP1;ratioP1;P1;durP2;ratioP2;P2;SDS_P1;SDS_P2;PMS_P1;PMS_P2;Temp;Humidity;BMP_temperature;BMP_pressure;BME280_temperature;BME280_humidity;BME280_pressure;Samples;Min_cycle;Max_cycle;Signal;HPM_P1;HPM_P2
2021/08/23 00:00:22;;;;;;;1.67;1.57;;;;;;;23.07;89.73;97813.13;4978862;28;20231;-67
2021/08/23 00:02:49;;;;;;;1.50;1.40;;;;;;;23.20;89.51;97834.88;4984460;28;20210;-67
2021/08/23 00:05:15;;;;;;;1.80;1.70;;;;;;;23.20;89.75;97830.63;4973252;28;20354;-67
2021/08/23 00:07:42;;;;;;;1.60;1.50;;;;;;;23.21;89.46;97832.34;4983983;28;20301;-66
2021/08/23 00:10:09;;;;;;;1.60;1.50;;;;;;;23.17;89.44;97824.53;4972679;28;20251;-66
2021/08/23 00:12:36;;;;;;;1.60;1.50;;;;;;;23.11;89.54;97812.41;4959164;28;20302;-67
2021/08/23 00:15:06;;;;;;;1.60;1.50;;;;;;;23.18;89.63;97832.25;4972071;28;20254;-67
2021/08/23 00:17:32;;;;;;;1.80;1.70;;;;;;;23.09;89.58;97813.19;4975890;28;20775;-66
2021/08/23 00:19:59;;;;;;;1.70;1.60;;;;;;;23.15;89.75;97827.03;4950452;28;20622;-68
2021/08/23 00:22:35;;;;;;;1.70;1.60;;;;;;;23.14;89.84;97827.88;4957736;28;20239;-67
2021/08/23 00:25:02;;;;;;;1.80;1.70;;;;;;;22.71;89.73;97747.19;5074953;23;21509;-63
2021/08/23 00:27:29;;;;;;;1.60;1.50;;;;;;;23.11;89.76;97814.97;4948950;28;20744;-65
2021/08/23 00:29:56;;;;;;;1.73;1.63;;;;;;;23.06;89.85;97811.41;4959025;28;20338;-63
2021/08/23 00:32:22;;;;;;;1.40;1.40;;;;;;;23.06;89.84;97807.97;4941811;28;20315;-63
2021/08/23 00:34:49;;;;;;;1.67;1.53;;;;;;;23.10;89.92;97812.38;4940990;28;20260;-63
2021/08/23 00:37:16;;;;;;;2.80;1.40;;;;;;;23.10;90.05;97808.13;4958225;28;20294;-64
2021/08/23 00:39:42;;;;;;;3.83;1.63;;;;;;;23.11;90.02;97803.84;4954473;28;20299;-65
2021/08/23 00:42:09;;;;;;;2.07;1.97;;;;;;;23.11;90.09;97799.59;4955619;28;20204;-63
2021/08/23 00:44:36;;;;;;;1.70;1.60;;;;;;;23.12;89.92;97811.56;4960530;28;20625;-63
2021/08/23 00:47:07;;;;;;;1.57;1.47;;;;;;;23.12;90.02;97808.16;4945130;28;20674;-63
2021/08/23 00:49:33;;;;;;;1.70;1.60;;;;;;;23.11;89.92;97809.84;4958792;28;20263;-64
2021/08/23 00:52:00;;;;;;;1.57;1.47;;;;;;;23.12;89.91;97810.72;4959786;28;20677;-65
2021/08/23 00:54:27;;;;;;;1.80;1.70;;;;;;;23.12;89.95;97810.72;4942226;28;20223;-65
2021/08/23 00:56:53;;;;;;;1.83;1.73;;;;;;;23.11;90.50;97809.84;4962651;28;20203;-63
2021/08/23 00:59:23;;;;;;;2.00;1.90;;;;;;;23.11;90.13;97806.41;4957248;28;20621;-64
2021/08/23 01:01:56;;;;;;;1.70;1.60;;;;;;;23.11;90.22;97811.53;4940765;28;20287;-64
2021/08/23 01:04:55;;;;;;;1.70;1.60;;;;;;;23.10;90.09;97810.69;4960810;28;20300;-64
2021/08/23 01:07:23;;;;;;;1.73;1.63;;;;;;;23.10;90.14;97815.81;4926348;28;20299;-64
2021/08/23 01:09:57;;;;;;;1.90;1.80;;;;;;;23.09;90.13;97816.63;4947911;28;20306;-64
2021/08/23 01:12:24;;;;;;;1.80;1.70;;;;;;;23.10;90.25;97820.06;4967686;28;20393;-65
2021/08/23 01:14:51;;;;;;;1.90;1.80;;;;;;;23.09;90.17;97814.06;4931735;28;20675;-65
2021/08/23 01:17:17;;;;;;;1.80;1.70;;;;;;;23.08;90.21;97821.72;4926830;29;20698;-62
2021/08/23 01:19:45;;;;;;;1.80;1.70;;;;;;;23.08;90.19;97822.59;4962537;28;20689;-64
2021/08/23 01:22:12;;;;;;;1.67;1.57;;;;;;;23.08;90.48;97825.16;4933138;29;20204;-65
2021/08/23 01:24:39;;;;;;;1.70;1.60;;;;;;;23.08;90.28;97824.28;4944024;28;20212;-65
2021/08/23 01:27:07;;;;;;;1.60;1.50;;;;;;;23.08;90.29;97824.28;4945858;28;20287;-65
2021/08/23 01:29:58;;;;;;;1.80;1.70;;;;;;;23.02;90.32;97819.84;4948880;28;20800;-65
2021/08/23 01:32:26;;;;;;;1.97;1.87;;;;;;;23.07;90.30;97823.38;4936148;28;20236;-63
2021/08/23 01:34:53;;;;;;;2.27;1.53;;;;;;;23.07;90.36;97819.97;4950422;28;20660;-62
2021/08/23 01:37:21;;;;;;;1.57;1.47;;;;;;;23.07;90.11;97823.38;4956239;28;20256;-64
2021/08/23 01:39:47;;;;;;;1.70;1.60;;;;;;;23.06;90.54;97816.53;4968824;28;20286;-64
2021/08/23 01:42:14;;;;;;;1.50;1.40;;;;;;;23.06;90.49;97818.22;4961562;28;20231;-65
2021/08/23 01:44:41;;;;;;;1.60;1.50;;;;;;;23.06;90.50;97821.66;4939762;28;20244;-64
2021/08/23 01:47:07;;;;;;;1.87;1.77;;;;;;;23.05;90.51;97819.94;4957759;28;20291;-64
2021/08/23 01:49:34;;;;;;;1.73;1.63;;;;;;;23.06;90.49;97820.78;4963198;28;20406;-63
2021/08/23 01:52:02;;;;;;;1.80;1.70;;;;;;;23.06;90.48;97823.34;4942836;28;20227;-64
2021/08/23 01:54:28;;;;;;;1.47;1.37;;;;;;;23.06;90.05;97818.22;4959209;28;20741;-63
2021/08/23 01:56:55;;;;;;;1.60;1.50;;;;;;;23.06;90.55;97825.91;4955645;28;20294;-65
2021/08/23 01:59:23;;;;;;;2.00;1.60;;;;;;;23.06;90.50;97831.91;4959959;28;20580;-65
2021/08/23 02:01:50;;;;;;;1.90;1.80;;;;;;;23.06;90.53;97828.47;4962633;28;20298;-65
2021/08/23 02:04:16;;;;;;;1.60;1.50;;;;;;;23.06;90.43;97831.03;4961057;28;20204;-64
2021/08/23 02:06:43;;;;;;;1.53;1.43;;;;;;;23.06;90.37;97828.47;4962044;28;20232;-65
2021/08/23 02:09:09;;;;;;;1.70;1.60;;;;;;;23.05;90.51;97830.19;4959241;28;20232;-65
2021/08/23 02:11:36;;;;;;;1.87;1.77;;;;;;;23.04;90.50;97823.31;4962079;28;20228;-65
2021/08/23 02:14:03;;;;;;;1.60;1.50;;;;;;;23.01;90.62;97824.94;4953962;28;20666;-65
2021/08/23 02:16:29;;;;;;;1.60;1.50;;;;;;;23.02;90.45;97822.41;4942331;28;20227;-64
2021/08/23 02:18:56;;;;;;;1.50;1.40;;;;;;;23.01;90.28;97828.34;4961562;28;20448;-64
2021/08/23 02:21:22;;;;;;;1.50;1.40;;;;;;;23.00;90.65;97828.31;4960135;28;20294;-65
2021/08/23 02:23:50;;;;;;;1.47;1.37;;;;;;;22.98;90.63;97830.81;4944651;28;20242;-65
2021/08/23 02:26:17;;;;;;;1.67;1.57;;;;;;;22.98;90.56;97825.69;4954772;28;20772;-63
2021/08/23 02:28:43;;;;;;;1.53;1.43;;;;;;;22.98;90.62;97828.25;4961286;28;20235;-64
2021/08/23 02:31:10;;;;;;;3.00;1.60;;;;;;;22.99;90.90;97831.69;4953092;28;20624;-63
2021/08/23 02:33:37;;;;;;;1.50;1.40;;;;;;;22.98;90.83;97833.38;4960823;28;20839;-65
2021/08/23 02:36:04;;;;;;;1.60;1.50;;;;;;;22.99;90.86;97837.72;4944266;28;20315;-64
2021/08/23 02:38:30;;;;;;;1.87;1.77;;;;;;;23.00;90.80;97838.56;4959687;28;20246;-62
2021/08/23 02:40:57;;;;;;;1.80;1.70;;;;;;;22.99;90.77;97832.59;4960316;28;20200;-65
2021/08/23 02:43:23;;;;;;;1.80;1.70;;;;;;;23.00;91.00;97834.31;4963959;28;20212;-65
2021/08/23 02:45:50;;;;;;;1.80;1.70;;;;;;;23.00;90.87;97844.56;4959330;28;20366;-63
2021/08/23 02:48:16;;;;;;;1.80;1.70;;;;;;;23.00;90.81;97838.56;4962563;28;20212;-63
2021/08/23 02:50:43;;;;;;;1.67;1.57;;;;;;;23.00;90.78;97831.75;4959499;28;20255;-65
2021/08/23 02:53:10;;;;;;;1.60;1.50;;;;;;;23.00;90.82;97834.31;4958581;28;20239;-64
2021/08/23 02:55:36;;;;;;;1.70;1.60;;;;;;;23.00;91.14;97833.44;4956448;28;20311;-65
2021/08/23 02:58:03;;;;;;;1.90;1.80;;;;;;;23.00;90.74;97839.44;4957427;28;20200;-65
2021/08/23 03:00:29;;;;;;;1.67;1.57;;;;;;;23.00;90.87;97834.31;4964248;28;20246;-62
2021/08/23 03:02:57;;;;;;;1.60;1.50;;;;;;;23.00;90.76;97834.31;4958069;28;20267;-65
2021/08/23 03:05:23;;;;;;;1.70;1.60;;;;;;;23.00;90.72;97833.44;4963145;28;20233;-62
2021/08/23 03:07:50;;;;;;;1.50;1.40;;;;;;;22.99;90.87;97831.69;4957845;28;20235;-63
2021/08/23 03:10:17;;;;;;;1.60;1.50;;;;;;;23.00;90.88;97828.31;4958645;28;20315;-63
2021/08/23 03:12:44;;;;;;;1.50;1.40;;;;;;;23.00;90.72;97826.63;4955917;28;20208;-65
2021/08/23 03:15:10;;;;;;;1.60;1.50;;;;;;;23.01;90.82;97824.94;4957623;28;20310;-64
2021/08/23 03:17:37;;;;;;;1.50;1.40;;;;;;;23.00;90.48;97815.50;4964547;28;20298;-63
2021/08/23 03:20:04;;;;;;;1.57;1.47;;;;;;;23.00;90.85;97818.06;4957196;28;20742;-65
2021/08/23 03:22:31;;;;;;;1.70;1.60;;;;;;;23.00;90.79;97825.75;4964241;28;20275;-64
2021/08/23 03:24:57;;;;;;;1.73;1.63;;;;;;;23.00;90.78;97826.63;4956478;28;20673;-64
2021/08/23 03:27:24;;;;;;;1.80;1.70;;;;;;;22.99;90.56;97822.34;4958368;28;20295;-63
2021/08/23 03:29:53;;;;;;;2.00;1.80;;;;;;;22.00;90.86;97650.34;4955414;28;20298;-64
2021/08/23 03:32:19;;;;;;;1.50;1.40;;;;;;;23.00;90.88;97821.50;4957337;28;20845;-63
2021/08/23 03:34:46;;;;;;;1.60;1.50;;;;;;;22.99;90.88;97814.63;4947685;28;20350;-63
2021/08/23 03:37:12;;;;;;;1.70;1.60;;;;;;;23.00;90.73;97818.94;4956173;28;20615;-65
2021/08/23 03:39:39;;;;;;;1.70;1.60;;;;;;;23.00;90.79;97818.06;4964761;28;20266;-63
2021/08/23 03:42:06;;;;;;;1.70;1.60;;;;;;;23.00;90.98;97812.94;4958875;28;20243;-65
2021/08/23 03:44:32;;;;;;;1.70;1.60;;;;;;;23.00;90.56;97815.50;4960627;28;20204;-62
2021/08/23 03:46:59;;;;;;;1.47;1.37;;;;;;;23.00;90.86;97821.50;4960922;28;21054;-65
2021/08/23 03:49:25;;;;;;;1.63;1.53;;;;;;;22.99;90.90;97817.22;4961401;28;20254;-64
2021/08/23 03:51:52;;;;;;;1.80;1.70;;;;;;;23.00;90.86;97820.63;4957280;28;20322;-65
2021/08/23 03:54:18;;;;;;;1.53;1.43;;;;;;;22.94;90.73;97812.75;4957833;28;20303;-65
2021/08/23 03:56:45;;;;;;;1.47;1.37;;;;;;;22.99;90.55;97817.22;4927564;28;20286;-65
2021/08/23 03:59:11;;;;;;;1.87;1.77;;;;;;;23.00;90.53;97813.81;4961516;28;20293;-63
2021/08/23 04:01:38;;;;;;;1.80;1.70;;;;;;;23.00;90.80;97823.19;4960176;28;20236;-64
2021/08/23 04:04:05;;;;;;;1.70;1.60;;;;;;;22.98;90.84;97818.00;4942362;28;20235;-65
2021/08/23 04:06:31;;;;;;;1.60;1.50;;;;;;;22.97;90.61;97816.28;4960356;28;20255;-65
2021/08/23 04:08:58;;;;;;;1.53;1.43;;;;;;;22.97;91.14;97823.97;4959892;28;20647;-65
2021/08/23 04:11:24;;;;;;;1.70;1.60;;;;;;;22.96;90.88;97829.94;4956439;28;20713;-64
2021/08/23 04:13:53;;;;;;;1.67;1.57;;;;;;;22.96;91.29;97832.50;4955436;28;20208;-64
2021/08/23 04:16:19;;;;;;;1.70;1.60;;;;;;;22.96;90.79;97826.50;4956068;28;20725;-65
2021/08/23 04:18:46;;;;;;;1.53;1.43;;;;;;;22.94;90.94;97836.69;4942193;28;20213;-64
2021/08/23 04:21:13;;;;;;;1.70;1.60;;;;;;;22.95;91.04;97829.91;4959732;28;20246;-65
2021/08/23 04:23:39;;;;;;;1.77;1.67;;;;;;;22.95;91.08;97830.75;4960221;28;20208;-63
2021/08/23 04:26:06;;;;;;;1.50;1.40;;;;;;;22.95;91.33;97824.75;4957467;28;20330;-65
2021/08/23 04:28:32;;;;;;;1.80;1.70;;;;;;;22.96;91.37;97823.94;4954689;28;20212;-65
2021/08/23 04:30:59;;;;;;;1.70;1.60;;;;;;;22.97;91.21;97829.09;4955725;28;20220;-63
2021/08/23 04:33:26;;;;;;;1.40;1.30;;;;;;;22.96;91.06;97829.94;4961168;28;20211;-63
2021/08/23 04:35:52;;;;;;;1.60;1.50;;;;;;;22.97;91.08;97823.09;4958530;28;20470;-63
2021/08/23 04:38:19;;;;;;;1.90;1.80;;;;;;;22.97;90.96;97834.22;4960017;28;20756;-65
2021/08/23 04:40:45;;;;;;;1.97;1.77;;;;;;;22.98;91.14;97824.84;4960704;28;20299;-65
2021/08/23 04:43:12;;;;;;;1.80;1.70;;;;;;;22.98;91.03;97827.41;4968523;28;20326;-65
2021/08/23 04:45:39;;;;;;;1.80;1.70;;;;;;;22.99;90.89;97831.69;4963129;28;20257;-65
2021/08/23 04:48:05;;;;;;;1.33;1.33;;;;;;;23.00;91.05;97833.44;4963600;28;20204;-65
2021/08/23 04:50:32;;;;;;;1.70;1.60;;;;;;;22.99;90.84;97829.16;4962381;28;20246;-65
2021/08/23 04:52:58;;;;;;;1.60;1.50;;;;;;;22.93;90.92;97819.59;4967325;28;20299;-62
2021/08/23 04:55:25;;;;;;;1.80;1.70;;;;;;;22.99;90.73;97834.28;4940431;28;20331;-64
2021/08/23 04:57:53;;;;;;;1.60;1.50;;;;;;;22.99;90.83;97836.84;4961735;28;20318;-63
2021/08/23 05:00:20;;;;;;;1.80;1.70;;;;;;;22.99;90.84;97842.84;4965071;28;20208;-64
2021/08/23 05:02:47;;;;;;;1.70;1.60;;;;;;;22.99;90.79;97841.97;4962161;28;20299;-64
2021/08/23 05:05:13;;;;;;;1.73;1.63;;;;;;;22.99;90.76;97842.84;4964158;28;20255;-63
2021/08/23 05:07:40;;;;;;;1.70;1.60;;;;;;;23.00;90.90;97838.56;4961688;28;20719;-65
2021/08/23 05:10:07;;;;;;;1.60;1.50;;;;;;;23.00;90.83;97836.00;4960721;28;20303;-64
2021/08/23 05:12:33;;;;;;;7.40;1.70;;;;;;;23.00;91.25;97836.00;4957840;28;20318;-64
2021/08/23 05:15:00;;;;;;;2.00;1.90;;;;;;;22.99;90.86;97832.59;4960522;28;20251;-64
2021/08/23 05:17:27;;;;;;;1.70;1.60;;;;;;;23.00;90.75;97836.88;4965594;28;20204;-65
2021/08/23 05:19:54;;;;;;;1.50;1.40;;;;;;;23.00;90.86;97834.31;4960656;28;20227;-65
2021/08/23 05:22:21;;;;;;;1.67;1.57;;;;;;;22.99;90.83;97827.47;4965023;28;20639;-63
2021/08/23 05:24:48;;;;;;;2.10;1.50;;;;;;;23.01;90.83;97830.06;4958665;28;20322;-65
2021/08/23 05:27:14;;;;;;;1.77;1.67;;;;;;;22.99;90.75;97829.16;4943248;29;20212;-64
2021/08/23 05:29:42;;;;;;;1.73;1.63;;;;;;;23.00;90.82;97825.75;4958681;28;20682;-62
2021/08/23 05:32:08;;;;;;;1.60;1.50;;;;;;;23.01;90.80;97830.06;4942596;29;20319;-65
2021/08/23 05:34:35;;;;;;;1.57;1.47;;;;;;;23.01;90.74;97830.91;4966452;28;20294;-65
2021/08/23 05:37:02;;;;;;;1.50;1.40;;;;;;;23.01;90.74;97832.63;4959040;28;20212;-62
2021/08/23 05:39:28;;;;;;;1.70;1.60;;;;;;;23.02;90.75;97831.78;4965460;28;20239;-65
2021/08/23 05:41:55;;;;;;;1.80;1.70;;;;;;;23.02;90.75;97839.47;4960820;28;20234;-65
2021/08/23 05:44:22;;;;;;;1.83;1.73;;;;;;;23.01;90.77;97830.06;4964408;28;20299;-65
2021/08/23 05:46:49;;;;;;;1.60;1.50;;;;;;;23.01;90.96;97837.75;4960148;28;20251;-64
2021/08/23 05:49:16;;;;;;;1.90;1.80;;;;;;;23.02;90.59;97840.38;4964923;28;20212;-64
2021/08/23 05:51:43;;;;;;;1.60;1.50;;;;;;;23.00;90.76;97831.75;4957579;28;20252;-64
2021/08/23 05:54:10;;;;;;;1.70;1.60;;;;;;;23.02;90.74;97836.91;4960758;28;20212;-63
2021/08/23 05:56:40;;;;;;;1.80;1.70;;;;;;;23.02;90.75;97831.78;4956949;28;20315;-63
2021/08/23 05:59:07;;;;;;;1.53;1.43;;;;;;;23.04;90.64;97837.84;4962164;28;20204;-63
2021/08/23 06:01:34;;;;;;;1.80;1.70;;;;;;;22.97;90.55;97831.66;4962260;28;20635;-65
2021/08/23 06:04:01;;;;;;;1.80;1.70;;;;;;;23.01;90.70;97832.63;4944361;28;20208;-64
2021/08/23 06:06:28;;;;;;;1.80;1.70;;;;;;;23.00;90.68;97833.44;4962538;28;20315;-64
2021/08/23 06:08:55;;;;;;;1.77;1.67;;;;;;;22.99;90.68;97826.56;4959769;28;20298;-65
2021/08/23 06:11:21;;;;;;;1.97;1.60;;;;;;;22.98;90.78;97830.81;4959410;28;20586;-62
2021/08/23 06:13:48;;;;;;;1.70;1.60;;;;;;;22.98;90.63;97832.53;4957392;28;20262;-64
2021/08/23 06:16:14;;;;;;;1.87;1.60;;;;;;;22.98;91.16;97832.53;4963215;28;20227;-65
2021/08/23 06:18:41;;;;;;;1.80;1.70;;;;;;;22.97;90.75;97834.22;4944615;28;20208;-63
2021/08/23 06:21:11;;;;;;;1.60;1.50;;;;;;;22.97;90.83;97836.78;4961497;28;20235;-64
2021/08/23 06:23:37;;;;;;;1.60;1.50;;;;;;;22.98;90.85;97833.38;4961875;28;20295;-65
2021/08/23 06:26:04;;;;;;;1.40;1.30;;;;;;;22.98;91.32;97833.38;4961115;28;20271;-64
2021/08/23 06:28:30;;;;;;;1.80;1.70;;;;;;;22.99;90.76;97831.69;4956871;28;20697;-65
2021/08/23 06:30:57;;;;;;;1.57;1.47;;;;;;;22.99;90.48;97826.56;4957876;28;20657;-65
2021/08/23 06:33:23;;;;;;;1.67;1.57;;;;;;;23.00;90.57;97824.06;4962905;28;20239;-63
2021/08/23 06:35:50;;;;;;;1.60;1.50;;;;;;;23.00;90.75;97829.19;4960429;28;20258;-64
2021/08/23 06:38:17;;;;;;;1.80;1.70;;;;;;;23.00;90.29;97826.63;4961805;28;20294;-63
2021/08/23 06:40:43;;;;;;;1.60;1.50;;;;;;;23.00;90.63;97826.63;4961531;28;20244;-64
2021/08/23 06:43:10;;;;;;;1.73;1.63;;;;;;;23.01;90.87;97827.50;4948289;28;20302;-65
2021/08/23 06:45:36;;;;;;;1.60;1.50;;;;;;;23.01;90.87;97827.50;4960655;28;20265;-65
2021/08/23 06:48:03;;;;;;;1.53;1.43;;;;;;;23.01;90.58;97832.63;4961369;28;20199;-64
2021/08/23 06:50:30;;;;;;;1.60;1.50;;;;;;;23.01;91.14;97830.06;4959475;28;20262;-64
2021/08/23 06:52:56;;;;;;;1.47;1.37;;;;;;;23.02;90.64;97836.91;4960329;28;20322;-65
2021/08/23 06:55:23;;;;;;;1.70;1.60;;;;;;;23.01;90.54;97832.63;4954789;28;20251;-62
2021/08/23 06:57:49;;;;;;;1.60;1.50;;;;;;;23.01;90.61;97830.91;4960003;28;20276;-64
2021/08/23 07:00:17;;;;;;;4.53;1.80;;;;;;;23.01;90.80;97835.19;4962369;28;20689;-63
2021/08/23 07:02:43;;;;;;;1.60;1.50;;;;;;;23.02;90.80;97836.91;4960156;28;20200;-65
2021/08/23 07:05:10;;;;;;;1.63;1.53;;;;;;;22.97;90.58;97831.66;4961557;28;20286;-63
2021/08/23 07:07:37;;;;;;;1.70;1.60;;;;;;;23.01;90.81;97837.75;4942196;28;20287;-64
2021/08/23 07:10:04;;;;;;;1.63;1.53;;;;;;;23.02;90.67;97834.34;4928646;28;20266;-64
2021/08/23 07:12:30;;;;;;;1.60;1.50;;;;;;;23.00;90.53;97834.31;4957965;28;20230;-63
2021/08/23 07:14:57;;;;;;;1.90;1.80;;;;;;;23.01;90.71;97835.19;4941463;28;20234;-63
2021/08/23 07:17:24;;;;;;;1.60;1.50;;;;;;;23.02;90.70;97836.91;4963236;28;20294;-64
2021/08/23 07:19:50;;;;;;;1.70;1.60;;;;;;;23.02;90.62;97829.22;4958674;28;20247;-65
2021/08/23 07:22:21;;;;;;;1.50;1.40;;;;;;;23.03;90.58;97841.22;4962914;28;20204;-65
2021/08/23 07:24:48;;;;;;;1.80;1.70;;;;;;;23.02;90.73;97837.81;4956766;28;20250;-64
2021/08/23 07:27:14;;;;;;;1.60;1.50;;;;;;;22.90;90.76;97810.94;4957946;28;20299;-64
2021/08/23 07:29:41;;;;;;;1.63;1.53;;;;;;;23.03;90.86;97836.97;4939772;28;20210;-64
2021/08/23 07:32:08;;;;;;;1.80;1.70;;;;;;;23.02;90.61;97832.66;4957375;28;20326;-63
2021/08/23 07:34:34;;;;;;;1.80;1.70;;;;;;;23.02;90.88;97839.47;4946984;28;20271;-63
2021/08/23 07:37:01;;;;;;;1.60;1.50;;;;;;;23.01;90.62;97835.19;4957562;28;20203;-64
2021/08/23 07:39:27;;;;;;;1.80;1.70;;;;;;;23.01;90.55;97833.47;4930735;28;20678;-63
2021/08/23 07:41:54;;;;;;;1.70;1.60;;;;;;;23.02;90.52;97840.38;4959017;28;20676;-64
2021/08/23 07:44:20;;;;;;;1.57;1.47;;;;;;;23.02;90.69;97840.38;4962936;28;20239;-62
2021/08/23 07:46:47;;;;;;;1.73;1.63;;;;;;;23.02;90.60;97848.06;4958306;28;20259;-64
2021/08/23 07:49:14;;;;;;;1.70;1.60;;;;;;;23.03;90.57;97846.34;4963531;28;20219;-64
2021/08/23 07:51:41;;;;;;;1.40;1.30;;;;;;;23.03;90.74;97851.47;4956554;28;20263;-63
2021/08/23 07:54:08;;;;;;;1.70;1.60;;;;;;;23.04;90.34;97845.53;4959171;28;20236;-65
2021/08/23 07:56:35;;;;;;;1.70;1.60;;;;;;;23.03;90.70;97851.47;4955039;28;20691;-65
2021/08/23 07:59:01;;;;;;;1.67;1.57;;;;;;;23.02;90.63;97847.16;4960161;28;20302;-65
2021/08/23 08:01:28;;;;;;;1.50;1.40;;;;;;;23.03;90.55;97852.34;4961344;28;20211;-64
2021/08/23 08:03:55;;;;;;;1.50;1.40;;;;;;;23.02;90.55;97845.50;4958838;28;20291;-64
2021/08/23 08:06:21;;;;;;;1.50;1.40;;;;;;;23.02;90.51;97845.50;4961768;28;20231;-64
2021/08/23 08:08:48;;;;;;;1.67;1.57;;;;;;;23.00;90.75;97849.69;4956349;28;20607;-62
2021/08/23 08:11:14;;;;;;;1.93;1.30;;;;;;;23.00;90.56;97854.81;4958135;28;20575;-64
2021/08/23 08:13:42;;;;;;;3.13;1.50;;;;;;;22.99;90.73;97852.22;4954811;28;20299;-64
2021/08/23 08:16:08;;;;;;;1.93;1.40;;;;;;;22.99;90.99;97855.66;4964824;28;20317;-63
2021/08/23 08:18:35;;;;;;;1.43;1.33;;;;;;;22.98;90.59;97851.34;4965884;28;20596;-65
2021/08/23 08:21:02;;;;;;;1.53;1.43;;;;;;;22.98;90.60;97853.91;4965855;28;20212;-64
2021/08/23 08:23:28;;;;;;;1.60;1.50;;;;;;;22.97;90.74;97844.47;4949698;29;20262;-65
2021/08/23 08:25:55;;;;;;;1.50;1.40;;;;;;;22.98;90.84;97843.63;4946507;28;20749;-65
2021/08/23 08:28:21;;;;;;;1.63;1.53;;;;;;;22.99;90.67;97845.41;4962694;28;20303;-65
2021/08/23 08:30:48;;;;;;;1.40;1.30;;;;;;;22.98;90.70;97835.94;4962022;28;20215;-64
2021/08/23 08:33:15;;;;;;;1.60;1.50;;;;;;;22.99;90.69;97837.72;4949898;28;20229;-65
2021/08/23 08:35:42;;;;;;;2.40;1.50;;;;;;;23.00;90.71;97841.13;4966272;28;20307;-62
2021/08/23 08:38:08;;;;;;;1.73;1.63;;;;;;;22.95;90.69;97835.88;4965626;28;20291;-65
2021/08/23 08:40:36;;;;;;;3.90;1.53;;;;;;;23.01;90.79;97835.19;4966381;28;20287;-65
2021/08/23 08:43:04;;;;;;;5.60;1.63;;;;;;;23.00;90.66;97829.19;4970330;28;20286;-64
2021/08/23 08:45:30;;;;;;;2.90;1.60;;;;;;;23.01;90.33;97832.63;4947926;28;20277;-64
2021/08/23 08:47:59;;;;;;;1.80;1.60;;;;;;;23.01;90.67;97836.03;4966506;28;20211;-64
2021/08/23 08:50:26;;;;;;;1.50;1.40;;;;;;;23.00;90.68;97834.31;4964647;28;20239;-65
2021/08/23 08:52:52;;;;;;;1.63;1.53;;;;;;;23.01;90.75;97837.75;4932996;28;20233;-64
2021/08/23 08:55:19;;;;;;;1.63;1.53;;;;;;;23.00;90.58;97831.75;4959644;28;20336;-64
2021/08/23 08:57:45;;;;;;;1.57;1.47;;;;;;;23.02;90.54;97836.91;4965735;28;20271;-65
2021/08/23 09:00:13;;;;;;;1.40;1.30;;;;;;;23.02;90.62;97832.66;4949835;28;20298;-63
2021/08/23 09:02:39;;;;;;;2.90;1.77;;;;;;;23.00;91.33;97831.75;4965533;28;20195;-64
2021/08/23 09:05:18;;;;;;;1.70;1.60;;;;;;;23.01;90.53;97832.63;4949078;28;20317;-64
2021/08/23 09:07:50;;;;;;;1.60;1.50;;;;;;;23.03;90.58;97836.09;4963827;28;20207;-64
2021/08/23 09:10:24;;;;;;;1.47;1.37;;;;;;;23.01;90.62;97833.47;4963520;28;20278;-63
2021/08/23 09:13:17;;;;;;;1.60;1.50;;;;;;;23.01;90.54;97832.63;4961470;28;20329;-64
2021/08/23 09:15:54;;;;;;;1.60;1.50;;;;;;;23.02;90.55;97835.22;4959726;28;20231;-64
2021/08/23 09:18:25;;;;;;;1.67;1.57;;;;;;;23.01;90.67;97835.19;4967382;28;20247;-65
2021/08/23 09:21:05;;;;;;;1.63;1.53;;;;;;;23.02;90.56;97837.81;4964378;28;20762;-65
2021/08/23 09:23:36;;;;;;;1.60;1.50;;;;;;;23.02;90.65;97836.91;4940041;28;20295;-64
2021/08/23 09:26:13;;;;;;;2.23;1.50;;;;;;;22.82;90.54;97802.16;4965575;28;20295;-65
2021/08/23 09:28:40;;;;;;;1.50;1.40;;;;;;;23.01;90.61;97832.63;4940812;28;20239;-65
2021/08/23 09:31:10;;;;;;;1.60;1.50;;;;;;;23.02;90.63;97832.66;4945536;28;20204;-64
2021/08/23 09:33:44;;;;;;;1.60;1.50;;;;;;;23.02;90.72;97834.34;4963473;28;20611;-64
2021/08/23 09:36:19;;;;;;;1.70;1.60;;;;;;;23.03;90.70;97828.38;4958159;28;20674;-63
2021/08/23 09:39:02;;;;;;;1.50;1.40;;;;;;;23.01;90.52;97823.22;4962399;28;20568;-64
2021/08/23 09:41:36;;;;;;;1.90;1.80;;;;;;;23.03;90.62;97824.16;4960951;28;20214;-65
2021/08/23 09:44:04;;;;;;;2.70;1.60;;;;;;;23.02;90.70;97826.66;4965998;28;20761;-64
2021/08/23 09:46:34;;;;;;;1.50;1.40;;;;;;;23.04;90.69;97832.72;4958767;28;20665;-63
2021/08/23 09:49:05;;;;;;;1.43;1.33;;;;;;;23.03;90.67;97826.72;4965860;28;20235;-64
2021/08/23 09:51:41;;;;;;;1.60;1.50;;;;;;;23.02;90.57;97824.97;4957889;28;20299;-64
2021/08/23 09:54:09;;;;;;;1.40;1.30;;;;;;;23.02;90.48;97821.53;4960467;28;20756;-62
2021/08/23 09:56:53;;;;;;;1.80;1.70;;;;;;;23.03;90.52;97823.25;4957476;28;20314;-65
2021/08/23 09:59:21;;;;;;;1.67;1.57;;;;;;;23.02;90.38;97822.41;4958508;28;20294;-65
2021/08/23 10:01:49;;;;;;;1.53;1.43;;;;;;;23.03;90.60;97825.81;4944366;28;20239;-64
2021/08/23 10:04:16;;;;;;;1.30;1.30;;;;;;;23.03;90.66;97824.16;4962430;28;20232;-63
2021/08/23 10:06:43;;;;;;;1.50;1.40;;;;;;;23.02;90.53;97824.09;4962687;28;20236;-65
2021/08/23 10:09:10;;;;;;;1.50;1.40;;;;;;;23.01;90.48;97820.66;4960396;28;20239;-64
2021/08/23 10:11:37;;;;;;;2.37;1.63;;;;;;;23.00;90.46;97816.38;4957631;28;20304;-64
2021/08/23 10:14:04;;;;;;;1.60;1.50;;;;;;;22.99;90.54;97813.75;4957969;28;20243;-65
2021/08/23 10:16:32;;;;;;;1.57;1.47;;;;;;;23.00;90.64;97812.94;4963607;28;20286;-65
2021/08/23 10:18:58;;;;;;;1.57;1.47;;;;;;;22.94;90.26;97799.94;4959914;28;20290;-63
2021/08/23 10:21:25;;;;;;;1.50;1.40;;;;;;;22.98;90.68;97805.19;4946364;28;20290;-61
2021/08/23 10:23:53;;;;;;;1.53;1.43;;;;;;;22.98;90.74;97804.34;4960891;28;20291;-62
2021/08/23 10:26:20;;;;;;;1.50;1.40;;;;;;;22.85;90.75;97779.19;4944085;28;20318;-65
2021/08/23 10:28:48;;;;;;;1.23;1.23;;;;;;;22.99;90.75;97798.38;4939017;28;20745;-65
2021/08/23 10:31:16;;;;;;;1.40;1.30;;;;;;;22.99;90.61;97791.56;4959088;28;20247;-63
2021/08/23 10:33:43;;;;;;;1.50;1.40;;;;;;;23.00;90.65;97798.41;4962203;28;20227;-65
2021/08/23 10:36:15;;;;;;;1.50;1.40;;;;;;;23.00;90.60;97789.84;4960779;28;20678;-62
2021/08/23 10:38:48;;;;;;;1.40;1.30;;;;;;;23.00;90.51;97789.84;4961117;28;20306;-64
2021/08/23 10:41:15;;;;;;;1.40;1.30;;;;;;;23.01;90.56;97795.03;4959755;28;20208;-65
2021/08/23 10:43:47;;;;;;;1.50;1.40;;;;;;;23.02;90.72;97795.91;4968238;28;20243;-64
2021/08/23 10:46:31;;;;;;;1.57;1.47;;;;;;;23.01;90.44;97800.16;4957460;28;20306;-63
2021/08/23 10:48:59;;;;;;;1.50;1.40;;;;;;;23.02;90.59;97789.09;4965156;28;20347;-64
2021/08/23 10:51:33;;;;;;;1.40;1.30;;;;;;;23.02;90.57;97795.91;4939556;29;20287;-64
2021/08/23 10:54:00;;;;;;;1.43;1.33;;;;;;;23.01;90.62;97794.19;4959812;28;20231;-63
2021/08/23 10:56:35;;;;;;;1.50;1.40;;;;;;;23.02;90.57;97783.97;4955654;28;20270;-65
2021/08/23 10:59:11;;;;;;;1.30;1.30;;;;;;;22.98;90.64;97771.03;4961705;28;20748;-64
2021/08/23 11:01:37;;;;;;;1.57;1.47;;;;;;;23.02;90.45;97783.09;4943961;28;20204;-65
2021/08/23 11:04:07;;;;;;;1.60;1.50;;;;;;;23.02;90.62;97777.97;4960410;28;20283;-64
2021/08/23 11:06:37;;;;;;;1.60;1.50;;;;;;;23.02;90.50;97777.97;4960886;28;20251;-62
2021/08/23 11:09:12;;;;;;;1.40;1.30;;;;;;;23.03;90.50;97778.00;4958887;28;20208;-65
2021/08/23 11:11:39;;;;;;;1.53;1.43;;;;;;;23.02;90.64;97785.66;4939016;28;20239;-65
2021/08/23 11:14:19;;;;;;;1.60;1.50;;;;;;;23.02;90.53;97786.53;4956914;28;20228;-64
2021/08/23 11:16:53;;;;;;;1.63;1.53;;;;;;;23.04;90.62;97784.00;4960656;28;20274;-65
2021/08/23 11:19:21;;;;;;;1.53;1.43;;;;;;;23.03;90.44;97780.56;4960131;28;20238;-65
2021/08/23 11:21:57;;;;;;;1.57;1.47;;;;;;;23.03;90.52;97779.69;4960941;28;20303;-65
2021/08/23 11:24:30;;;;;;;1.50;1.40;;;;;;;23.02;90.48;97776.28;4959238;28;20343;-65
2021/08/23 11:27:01;;;;;;;1.60;1.50;;;;;;;23.02;90.54;97776.28;4959707;28;20306;-64
2021/08/23 11:29:29;;;;;;;1.60;1.50;;;;;;;23.01;90.54;97773.66;4938122;28;20243;-65
2021/08/23 11:31:56;;;;;;;1.53;1.43;;;;;;;23.02;90.55;97777.97;4942047;28;20733;-62
2021/08/23 11:34:25;;;;;;;1.57;1.47;;;;;;;23.02;90.72;97776.28;4962977;28;20204;-65
2021/08/23 11:36:52;;;;;;;1.20;1.20;;;;;;;23.02;90.42;97773.72;4941633;28;20664;-63